הכול
K. D. Matanzima Airport (Umtata) UTT מזג אוויר
|
Umtata (UTT / FAUT)
שמים בהירים
רוחות קלות |
|
16 °C |
UTT Terminal Area Forecast
| Date | Time (SAST) | Flight Rules | Wind Dir. | Speed | Type | Height AGL (ft) | Visibility | Remarks | ||||||
|---|---|---|---|---|---|---|---|---|---|---|---|---|---|---|
Recent UTT METAR history
| Date | Time (SAST) | Flight Rules | Wind Dir. | Speed | Type | Height AGL (ft) | Visibility | Temp (°C) | Temp (°F) | Dew Point (°C) | Dew Point (°F) | Rel. Humid. | Pressure | Density Altitude | Remarks |
|---|---|---|---|---|---|---|---|---|---|---|---|---|---|---|---|
| 02-ספט | 20:00 | n/a | 180° | 8 kt | Missing | 16° | 60° | 15° | 59° | 94% | 1016 mb | 2,913 ft | |||
| 02-ספט | 19:00 | n/a | 170° | 7 kt | Missing | 17° | 62° | 15° | 59° | 88% | 1016 mb | 3,033 ft | |||
| 02-ספט | 18:00 | VFR | 160° | 8 kt | Scattered |
4,500 |
9000 meters | 17° | 62° | 15° | 59° | 88% | 1016 mb | 3,033 ft | |
| 02-ספט | 17:00 | n/a | 160° | 3 kt | Missing | 20° | 68° | 15° | 59° | 73% | 1016 mb | 3,393 ft | |||
| 02-ספט | 16:00 | n/a | 170° | 6 kt | Missing | 21° | 69° | 15° | 59° | 69% | 1016 mb | 3,513 ft | |||
| 02-ספט | 15:00 | n/a | 150° | 5 kt | Missing | 21° | 69° | 15° | 59° | 69% | 1017 mb | 3,483 ft | |||
| 02-ספט | 14:00 | n/a | 170° | 3 kt | Missing | 20° | 68° | 15° | 59° | 73% | 1017 mb | 3,363 ft | |||
| 02-ספט | 13:00 | n/a | 140° | 4 kt | Missing | 20° | 68° | 15° | 59° | 73% | 1018 mb | 3,334 ft | |||
| 02-ספט | 12:00 | n/a | 60° | 4 kt | Missing | 18° | 64° | 14° | 57° | 77% | 1019 mb | 3,064 ft | |||
| 02-ספט | 11:00 | n/a | 50° | 4 kt | Missing | 16° | 60° | 14° | 57° | 88% | 1021 mb | 2,765 ft | |||
| 02-ספט | 10:00 | n/a | 250° | 2 kt | Missing | 15° | 59° | 13° | 55° | 88% | 1022 mb | 2,616 ft | |||
| 02-ספט | 09:00 | n/a | 150° | 2 kt | Missing | 14° | 57° | 13° | 55° | 94% | 1021 mb | 2,525 ft | |||
| 02-ספט | 08:00 | n/a | Calm | Missing | 14° | 57° | 13° | 55° | 94% | 1021 mb | 2,525 ft | ||||
| 02-ספט | 07:00 | n/a | Calm | Missing | 12° | 53° | 12° | 53° | 100% | 1021 mb | 2,285 ft | ||||
| 02-ספט | 06:00 | n/a | 210° | 5 kt | Missing | 11° | 51° | 11° | 51° | 100% | 1020 mb | 2,195 ft | |||
| 02-ספט | 05:00 | n/a | Calm | Missing | 12° | 53° | 11° | 51° | 94% | 1019 mb | 2,344 ft | ||||
| 02-ספט | 04:00 | n/a | 20° | 4 kt | Missing | 13° | 55° | 12° | 53° | 94% | 1019 mb | 2,464 ft | |||
| 02-ספט | 03:00 | n/a | 190° | 7 kt | Missing | 13° | 55° | 12° | 53° | 94% | 1019 mb | 2,464 ft | |||
| 02-ספט | 02:00 | n/a | 270° | 3 kt | Missing | 13° | 55° | 13° | 55° | 100% | 1018 mb | 2,494 ft | |||
| 02-ספט | 01:00 | n/a | 350° | 4 kt | Missing | 14° | 57° | 13° | 55° | 94% | 1019 mb | 2,584 ft | |||
| 02-ספט | 00:00 | n/a | 310° | 2 kt | Missing | 15° | 59° | 14° | 57° | 94% | 1020 mb | 2,675 ft | |||
| 01-ספט | 23:00 | n/a | 270° | 5 kt | Missing | 16° | 60° | 13° | 55° | 82% | 1021 mb | 2,765 ft | |||
| 01-ספט | 22:00 | n/a | 210° | 5 kt | Missing | 16° | 60° | 15° | 59° | 94% | 1020 mb | 2,795 ft | |||
| 01-ספט | 21:00 | n/a | 210° | 2 kt | Missing | 16° | 60° | 15° | 59° | 94% | 1020 mb | 2,795 ft |
כניסה לאתר
| אין תמיכה בדפדפן שלך. שדרג את הדפדפן שלך |
